createdAt,value
2022-10-28T00:01:37.343Z,10.30
2022-10-28T00:04:06.640Z,11.95
2022-10-28T00:06:37.291Z,11.30
2022-10-28T00:09:09.803Z,11.00
2022-10-28T00:11:41.114Z,11.40
2022-10-28T00:14:11.321Z,10.48
2022-10-28T00:16:41.156Z,9.63
2022-10-28T00:19:12.520Z,10.48
2022-10-28T00:21:43.796Z,10.27
2022-10-28T00:26:45.167Z,9.95
2022-10-28T00:29:16.330Z,10.88
2022-10-28T00:31:45.997Z,10.40
2022-10-28T00:34:17.758Z,10.77
2022-10-28T00:36:48.015Z,9.88
2022-10-28T00:39:20.234Z,9.73
2022-10-28T00:41:53.752Z,9.82
2022-10-28T00:44:57.046Z,9.77
2022-10-28T00:47:45.587Z,9.73
2022-10-28T00:50:21.893Z,9.13
2022-10-28T00:52:53.906Z,8.65
2022-10-28T00:55:26.292Z,10.23
2022-10-28T00:57:56.929Z,9.80
2022-10-28T01:00:26.927Z,9.77
2022-10-28T01:02:58.208Z,9.98
2022-10-28T01:05:30.164Z,9.48
2022-10-28T01:08:03.459Z,9.60
2022-10-28T01:10:49.606Z,10.07
2022-10-28T01:13:30.754Z,9.05
2022-10-28T01:16:06.568Z,9.70
2022-10-28T01:18:44.037Z,8.93
2022-10-28T01:21:40.899Z,9.30
2022-10-28T01:24:31.843Z,9.00
2022-10-28T01:27:33.723Z,9.57
2022-10-28T01:30:11.335Z,9.68
2022-10-28T01:32:53.987Z,9.57
2022-10-28T01:38:19.279Z,8.57
2022-10-28T01:40:58.778Z,9.73
2022-10-28T01:43:32.347Z,9.45
2022-10-28T01:46:06.188Z,9.50
2022-10-28T01:48:41.649Z,9.02
2022-10-28T01:51:15.380Z,8.80
2022-10-28T01:53:48.805Z,8.80
2022-10-28T01:56:22.880Z,9.23
2022-10-28T01:58:53.927Z,9.20
2022-10-28T02:01:24.995Z,10.45
2022-10-28T02:03:56.851Z,10.02
2022-10-28T02:06:28.755Z,9.65
2022-10-28T02:09:15.836Z,9.85
2022-10-28T02:12:06.203Z,10.07
2022-10-28T02:14:50.043Z,9.52
2022-10-28T02:17:25.701Z,9.52
2022-10-28T02:20:02.852Z,9.70
2022-10-28T02:22:42.338Z,10.13
2022-10-28T02:25:17.243Z,9.57
2022-10-28T02:27:52.556Z,9.23
2022-10-28T02:30:25.328Z,8.77
2022-10-28T02:32:59.344Z,9.23
2022-10-28T02:35:33.783Z,10.23
2022-10-28T02:38:13.324Z,10.15
2022-10-28T02:40:47.732Z,10.30
2022-10-28T02:43:19.324Z,10.05
2022-10-28T02:45:53.105Z,9.65
2022-10-28T02:48:29.151Z,9.27
2022-10-28T02:51:08.715Z,8.73
2022-10-28T02:53:49.238Z,8.32
2022-10-28T02:56:21.208Z,8.45
2022-10-28T02:58:50.607Z,8.93
2022-10-28T03:01:20.216Z,8.93
2022-10-28T03:03:48.994Z,8.70
2022-10-28T03:06:19.090Z,9.10
2022-10-28T03:08:47.633Z,8.50
2022-10-28T03:11:16.739Z,8.30
2022-10-28T03:13:45.300Z,8.60
2022-10-28T03:16:14.120Z,8.68
2022-10-28T03:18:42.668Z,8.80
2022-10-28T03:21:11.101Z,8.82
2022-10-28T03:23:41.189Z,8.98
2022-10-28T03:26:12.651Z,8.30
2022-10-28T03:28:41.777Z,8.48
2022-10-28T03:31:10.888Z,8.25
2022-10-28T03:33:39.640Z,8.70
2022-10-28T03:36:08.913Z,8.80
2022-10-28T03:38:37.735Z,8.40
2022-10-28T03:41:08.121Z,8.65
2022-10-28T03:43:36.741Z,8.80
2022-10-28T03:46:05.351Z,8.85
2022-10-28T03:48:33.855Z,7.97
2022-10-28T03:51:02.527Z,8.82
2022-10-28T03:53:31.547Z,9.10
2022-10-28T03:56:01.850Z,8.15
2022-10-28T03:58:33.499Z,9.35
2022-10-28T04:01:04.865Z,9.65
2022-10-28T04:03:35.123Z,8.82
2022-10-28T04:06:03.781Z,9.40
2022-10-28T04:08:32.350Z,8.90
2022-10-28T04:11:01.025Z,8.32
2022-10-28T04:13:29.570Z,8.55
2022-10-28T04:16:00.068Z,8.18
2022-10-28T04:18:28.636Z,7.57
2022-10-28T04:20:57.577Z,8.05
2022-10-28T04:23:26.294Z,7.90
2022-10-28T04:25:55.659Z,8.80
2022-10-28T04:28:25.556Z,7.70
2022-10-28T04:30:54.545Z,8.23
2022-10-28T04:33:24.903Z,7.93
2022-10-28T04:35:53.621Z,8.35
2022-10-28T04:38:22.606Z,8.27
2022-10-28T04:40:51.785Z,8.23
2022-10-28T04:43:20.487Z,8.82
2022-10-28T04:45:49.549Z,8.82
2022-10-28T04:48:18.136Z,10.00
2022-10-28T04:50:48.416Z,9.30
2022-10-28T04:53:17.217Z,9.02
2022-10-28T04:55:45.801Z,8.80
2022-10-28T04:58:15.010Z,9.50
2022-10-28T05:00:43.688Z,8.93
2022-10-28T05:03:12.444Z,9.10
2022-10-28T05:05:41.087Z,9.85
2022-10-28T05:08:11.268Z,9.43
2022-10-28T05:10:40.103Z,9.38
2022-10-28T05:13:08.715Z,9.23
2022-10-28T05:15:37.534Z,8.90
2022-10-28T05:18:06.081Z,9.95
2022-10-28T05:20:34.850Z,9.18
2022-10-28T05:23:04.842Z,9.38
2022-10-28T05:25:35.523Z,10.05
2022-10-28T05:28:04.911Z,9.35
2022-10-28T05:30:33.902Z,8.88
2022-10-28T05:33:03.640Z,9.05
2022-10-28T05:35:32.858Z,10.10
2022-10-28T05:38:04.697Z,8.88
2022-10-28T05:40:35.612Z,9.35
2022-10-28T05:43:05.176Z,8.85
2022-10-28T05:45:34.101Z,7.95
2022-10-28T05:48:03.276Z,8.52
2022-10-28T05:50:32.450Z,9.88
2022-10-28T05:53:03.479Z,9.25
2022-10-28T05:55:32.704Z,8.65
2022-10-28T05:58:03.446Z,8.88
2022-10-28T06:00:32.558Z,9.00
2022-10-28T06:03:09.603Z,10.23
2022-10-28T06:05:39.633Z,10.00
2022-10-28T06:08:12.389Z,9.15
2022-10-28T06:10:43.580Z,10.48
2022-10-28T06:13:12.379Z,10.43
2022-10-28T06:15:41.524Z,11.27
2022-10-28T06:18:14.323Z,10.93
2022-10-28T06:20:53.614Z,9.85
2022-10-28T06:23:24.695Z,10.45
2022-10-28T06:28:33.139Z,10.13
2022-10-28T06:31:02.922Z,10.60
2022-10-28T06:33:31.910Z,10.27
2022-10-28T06:36:03.965Z,10.40
2022-10-28T06:41:01.466Z,9.98
2022-10-28T06:43:32.832Z,11.25
2022-10-28T06:46:02.472Z,10.70
2022-10-28T06:48:33.501Z,10.90
2022-10-28T06:51:02.843Z,12.02
2022-10-28T06:53:32.499Z,11.90
2022-10-28T06:56:02.999Z,10.93
2022-10-28T06:58:31.905Z,12.07
2022-10-28T07:01:15.513Z,10.45
2022-10-28T07:03:49.581Z,11.20
2022-10-28T07:06:19.112Z,11.55
2022-10-28T07:08:49.325Z,11.38
2022-10-28T07:11:19.465Z,11.88
2022-10-28T07:13:49.010Z,11.90
2022-10-28T07:16:19.614Z,11.65
2022-10-28T07:18:48.435Z,10.85
2022-10-28T07:21:18.588Z,12.35
2022-10-28T07:23:50.458Z,14.30
2022-10-28T07:26:19.508Z,13.40
2022-10-28T07:28:48.609Z,15.52
2022-10-28T07:31:19.296Z,14.10
2022-10-28T07:33:53.693Z,14.57
2022-10-28T07:36:22.873Z,15.38
2022-10-28T07:38:53.697Z,15.00
2022-10-28T07:41:23.492Z,15.80
2022-10-28T07:43:55.483Z,15.60
2022-10-28T07:46:26.284Z,15.48
2022-10-28T07:48:54.883Z,15.27
2022-10-28T07:51:24.589Z,15.48
2022-10-28T07:53:53.800Z,15.55
2022-10-28T07:56:25.695Z,16.95
2022-10-28T07:58:54.805Z,14.80
2022-10-28T08:01:24.040Z,15.05
2022-10-28T08:03:56.856Z,15.77
2022-10-28T08:06:26.072Z,14.73
2022-10-28T08:08:56.712Z,14.60
2022-10-28T08:11:26.392Z,13.80
2022-10-28T08:13:56.576Z,15.25
2022-10-28T08:16:25.533Z,13.77
2022-10-28T08:18:56.870Z,12.88
2022-10-28T08:21:28.710Z,12.77
2022-10-28T08:24:00.836Z,12.98
2022-10-28T08:28:58.462Z,12.07
2022-10-28T08:31:27.565Z,12.23
2022-10-28T08:33:57.807Z,13.02
2022-10-28T08:36:29.770Z,12.25
2022-10-28T08:38:59.730Z,12.48
2022-10-28T08:41:36.357Z,12.02
2022-10-28T08:44:39.803Z,11.50
2022-10-28T08:47:19.444Z,10.95
2022-10-28T08:49:54.391Z,10.13
2022-10-28T08:52:34.551Z,11.50
2022-10-28T08:55:07.801Z,10.10
2022-10-28T08:57:41.547Z,10.07
2022-10-28T09:00:23.030Z,10.35
2022-10-28T09:03:17.808Z,9.18
2022-10-28T09:05:51.467Z,10.07
2022-10-28T09:11:44.702Z,10.05
2022-10-28T09:14:30.414Z,9.95
2022-10-28T09:20:02.404Z,8.68
2022-10-28T09:25:39.185Z,8.25
2022-10-28T09:28:26.212Z,8.67
2022-10-28T09:34:13.333Z,7.60
2022-10-28T09:36:46.582Z,8.10
2022-10-28T09:39:25.326Z,7.88
2022-10-28T09:44:50.794Z,6.80
2022-10-28T09:47:24.499Z,6.63
2022-10-28T09:52:56.879Z,5.82
2022-10-28T09:55:27.722Z,5.72
2022-10-28T10:03:30.402Z,4.97
2022-10-28T10:06:04.271Z,5.78
2022-10-28T10:14:21.460Z,4.78
2022-10-28T10:16:56.194Z,4.35
2022-10-28T10:19:25.208Z,4.22
2022-10-28T10:24:47.609Z,4.72
2022-10-28T10:27:23.537Z,4.75
2022-10-28T10:29:56.564Z,4.50
2022-10-28T10:32:28.968Z,5.40
2022-10-28T10:35:02.320Z,4.93
2022-10-28T10:37:35.511Z,5.20
2022-10-28T10:40:19.697Z,5.03
2022-10-28T10:43:03.486Z,4.32
2022-10-28T10:45:39.988Z,4.75
2022-10-28T10:51:10.361Z,4.90
2022-10-28T10:53:43.583Z,4.65
2022-10-28T10:59:22.256Z,4.03
2022-10-28T11:01:56.118Z,4.00
2022-10-28T11:04:28.009Z,4.43
2022-10-28T11:06:58.605Z,4.75
2022-10-28T11:09:32.942Z,4.82
2022-10-28T11:15:00.735Z,5.05
2022-10-28T11:17:34.714Z,4.57
2022-10-28T11:20:25.593Z,4.68
2022-10-28T11:23:05.462Z,4.45
2022-10-28T11:25:38.580Z,5.00
2022-10-28T11:31:29.355Z,4.20
2022-10-28T11:34:15.640Z,3.85
2022-10-28T11:36:59.007Z,3.55
2022-10-28T11:39:37.057Z,3.65
2022-10-28T11:42:21.634Z,3.50
2022-10-28T11:48:05.793Z,4.03
2022-10-28T11:53:57.501Z,3.80
2022-10-28T11:56:35.703Z,3.25
2022-10-28T12:02:34.404Z,3.80
2022-10-28T12:05:10.741Z,3.58
2022-10-28T12:08:03.382Z,3.40
2022-10-28T12:10:47.191Z,3.22
2022-10-28T12:13:21.990Z,3.15
2022-10-28T12:15:56.677Z,3.38
2022-10-28T12:21:43.832Z,2.70
2022-10-28T12:27:15.281Z,3.00
2022-10-28T12:41:19.742Z,2.80
2022-10-28T12:52:41.257Z,4.20
2022-10-28T12:55:22.407Z,3.50
2022-10-28T13:00:50.571Z,2.92
2022-10-28T13:03:19.964Z,3.28
2022-10-28T13:09:18.964Z,3.00
2022-10-28T13:12:23.898Z,2.70
2022-10-28T13:15:18.010Z,2.97
2022-10-28T13:18:02.344Z,3.03
2022-10-28T13:20:48.741Z,3.08
2022-10-28T13:26:24.634Z,2.67
2022-10-28T13:37:33.636Z,3.10
2022-10-28T13:42:50.410Z,2.50
2022-10-28T13:45:55.401Z,2.40
2022-10-28T13:51:47.802Z,2.25
2022-10-28T13:54:28.331Z,3.67
2022-10-28T13:57:05.286Z,2.72
2022-10-28T13:59:49.137Z,3.35
2022-10-28T14:02:40.458Z,2.42
2022-10-28T14:08:00.841Z,3.00
2022-10-28T14:10:31.603Z,2.97
2022-10-28T14:13:03.476Z,2.92
2022-10-28T14:15:35.205Z,2.85
2022-10-28T14:21:16.574Z,3.53
2022-10-28T14:24:10.603Z,2.60
2022-10-28T14:27:32.262Z,3.22
2022-10-28T14:33:04.757Z,2.22
2022-10-28T14:35:44.870Z,2.80
2022-10-28T14:38:42.398Z,2.67
2022-10-28T14:41:38.030Z,2.50
2022-10-28T14:44:20.378Z,3.13
2022-10-28T14:47:11.969Z,2.75
2022-10-28T14:49:43.757Z,2.83
2022-10-28T14:55:08.398Z,2.53
2022-10-28T14:57:37.729Z,3.05
2022-10-28T15:00:09.373Z,3.30
2022-10-28T15:02:39.651Z,3.30
2022-10-28T15:05:18.328Z,2.92
2022-10-28T15:07:50.409Z,2.78
2022-10-28T15:10:23.881Z,3.25
2022-10-28T15:12:55.423Z,3.60
2022-10-28T15:17:55.883Z,3.08
2022-10-28T15:20:27.346Z,3.40
2022-10-28T15:23:14.843Z,3.93
2022-10-28T15:25:44.058Z,3.90
2022-10-28T15:33:46.568Z,3.95
2022-10-28T15:39:10.383Z,3.83
2022-10-28T15:41:44.033Z,4.05
2022-10-28T15:44:32.042Z,3.92
2022-10-28T15:47:01.946Z,4.00
2022-10-28T15:49:35.362Z,4.28
2022-10-28T15:52:22.501Z,3.63
2022-10-28T15:55:00.466Z,4.18
2022-10-28T15:57:32.730Z,4.05
2022-10-28T16:00:22.572Z,4.50
2022-10-28T16:02:56.761Z,6.80
2022-10-28T16:05:46.334Z,8.45
2022-10-28T16:08:24.843Z,10.75
2022-10-28T16:10:57.806Z,10.73
2022-10-28T16:13:30.865Z,9.77
2022-10-28T16:16:03.642Z,8.80
2022-10-28T16:18:36.528Z,7.70
2022-10-28T16:21:06.172Z,7.85
2022-10-28T16:26:28.751Z,8.10
2022-10-28T16:28:57.661Z,9.00
2022-10-28T16:34:17.159Z,9.70
2022-10-28T16:36:46.122Z,10.88
2022-10-28T16:39:15.114Z,10.18
2022-10-28T16:41:45.606Z,9.00
2022-10-28T16:44:22.374Z,8.45
2022-10-28T16:52:25.413Z,9.73
2022-10-28T16:54:55.631Z,10.98
2022-10-28T16:57:26.649Z,10.65
2022-10-28T16:59:55.930Z,12.35
2022-10-28T17:02:29.136Z,13.85
2022-10-28T17:04:59.345Z,14.88
2022-10-28T17:10:17.840Z,15.43
2022-10-28T17:15:33.885Z,14.30
2022-10-28T17:20:48.921Z,12.60
2022-10-28T17:23:18.357Z,12.63
2022-10-28T17:25:57.480Z,12.60
2022-10-28T17:28:27.727Z,12.32
2022-10-28T17:36:41.788Z,11.53
2022-10-28T17:39:16.456Z,12.07
2022-10-28T17:41:46.869Z,11.60
2022-10-28T17:44:17.616Z,12.02
2022-10-28T17:52:20.578Z,12.27
2022-10-28T17:54:49.492Z,12.48
2022-10-28T17:57:18.188Z,12.85
2022-10-28T17:59:50.208Z,11.50
2022-10-28T18:07:34.089Z,12.60
2022-10-28T18:10:02.898Z,13.40
2022-10-28T18:12:32.504Z,12.15
2022-10-28T18:17:50.828Z,13.60
2022-10-28T18:20:19.658Z,13.30
2022-10-28T18:22:48.510Z,13.50
2022-10-28T18:25:17.663Z,15.15
2022-10-28T18:27:46.605Z,15.70
2022-10-28T18:30:19.670Z,16.92
2022-10-28T18:35:36.092Z,14.63
2022-10-28T18:38:05.036Z,14.55
2022-10-28T18:40:33.903Z,14.82
2022-10-28T18:43:03.136Z,14.98
2022-10-28T18:45:36.067Z,15.30
2022-10-28T18:48:06.586Z,15.07
2022-10-28T18:50:35.406Z,14.00
2022-10-28T18:55:52.387Z,14.90
2022-10-28T19:01:11.688Z,14.50
2022-10-28T19:03:41.359Z,15.15
2022-10-28T19:06:12.320Z,14.23
2022-10-28T19:08:42.440Z,14.50
2022-10-28T19:11:13.842Z,13.48
2022-10-28T19:13:44.332Z,13.55
2022-10-28T19:19:02.695Z,15.45
2022-10-28T19:21:31.590Z,16.83
2022-10-28T19:26:47.648Z,15.73
2022-10-28T19:29:16.721Z,15.80
2022-10-28T19:31:47.510Z,16.05
2022-10-28T19:34:21.048Z,15.57
2022-10-28T19:36:49.956Z,14.82
2022-10-28T19:39:18.619Z,14.45
2022-10-28T19:41:50.903Z,14.52
2022-10-28T19:47:08.308Z,16.02
2022-10-28T19:49:43.447Z,15.18
2022-10-28T19:54:59.472Z,16.00
2022-10-28T19:57:28.215Z,15.40
2022-10-28T19:59:57.454Z,15.05
2022-10-28T20:02:28.646Z,15.20
2022-10-28T20:04:57.516Z,13.50
2022-10-28T20:07:26.479Z,14.02
2022-10-28T20:09:55.962Z,14.27
2022-10-28T20:12:24.944Z,14.40
2022-10-28T20:14:53.732Z,14.50
2022-10-28T20:17:22.727Z,14.30
2022-10-28T20:19:52.913Z,13.55
2022-10-28T20:22:21.879Z,12.88
2022-10-28T20:24:50.819Z,12.77
2022-10-28T20:27:19.588Z,12.90
2022-10-28T20:29:48.531Z,13.05
2022-10-28T20:32:17.491Z,12.70
2022-10-28T20:34:46.222Z,11.88
2022-10-28T20:40:06.371Z,12.20
2022-10-28T20:42:36.510Z,12.52
2022-10-28T20:45:05.716Z,11.75
2022-10-28T20:47:34.497Z,12.15
2022-10-28T20:55:38.276Z,12.50
2022-10-28T20:58:07.415Z,11.90
2022-10-28T21:00:36.301Z,11.50
2022-10-28T21:03:05.325Z,10.80
2022-10-28T21:08:22.521Z,10.18
2022-10-28T21:10:51.346Z,11.50
2022-10-28T21:13:20.297Z,11.68
2022-10-28T21:15:54.573Z,10.95
2022-10-28T21:21:13.346Z,11.18
2022-10-28T21:23:43.508Z,12.23
2022-10-28T21:26:14.867Z,11.82
2022-10-28T21:28:43.693Z,12.55
2022-10-28T21:34:04.475Z,11.10
2022-10-28T21:36:36.484Z,11.70
2022-10-28T21:39:06.761Z,11.48
2022-10-28T21:41:35.501Z,10.65
2022-10-28T21:44:06.899Z,11.88
2022-10-28T21:49:21.891Z,11.07
2022-10-28T21:51:50.812Z,11.82
2022-10-28T21:54:21.126Z,11.65
2022-10-28T21:56:51.003Z,10.63
2022-10-28T21:59:19.672Z,10.95
2022-10-28T22:04:34.807Z,9.60
2022-10-28T22:07:03.717Z,9.13
2022-10-28T22:12:09.588Z,8.05
2022-10-28T22:14:39.112Z,7.72
2022-10-28T22:17:08.116Z,7.57
2022-10-28T22:19:36.662Z,7.93
2022-10-28T22:24:54.153Z,7.65
2022-10-28T22:27:23.417Z,7.72
2022-10-28T22:29:52.301Z,7.78
2022-10-28T22:32:20.849Z,7.10
2022-10-28T22:34:50.243Z,8.25
2022-10-28T22:37:19.128Z,7.75
2022-10-28T22:39:47.678Z,7.05
2022-10-28T22:45:05.596Z,7.13
2022-10-28T22:47:37.315Z,7.30
2022-10-28T22:50:06.918Z,7.00
2022-10-28T22:55:21.392Z,7.35
2022-10-28T22:57:54.452Z,7.57
2022-10-28T23:03:09.868Z,7.28
2022-10-28T23:05:38.998Z,7.07
2022-10-28T23:10:54.329Z,6.72
2022-10-28T23:16:12.408Z,7.72
2022-10-28T23:24:14.285Z,6.75
2022-10-28T23:26:43.887Z,6.80
2022-10-28T23:29:14.301Z,6.45
2022-10-28T23:31:43.076Z,6.95
2022-10-28T23:34:12.671Z,7.22
2022-10-28T23:39:27.859Z,7.00
2022-10-28T23:41:56.734Z,6.90
2022-10-28T23:47:16.440Z,6.97
2022-10-28T23:49:45.461Z,6.72
2022-10-28T23:52:14.397Z,6.82
2022-10-28T23:57:31.622Z,7.65
